Time;durP1;ratioP1;P1;durP2;ratioP2;P2;SDS_P1;SDS_P2;PMS_P1;PMS_P2;Temp;Humidity;BMP_temperature;BMP_pressure;BME280_temperature;BME280_humidity;BME280_pressure;Samples;Min_cycle;Max_cycle;Signal;HPM_P1;HPM_P2
2021/12/18 00:01:58;;;;;;;2.90;2.10;;;5.50;99.90;;;;;;4953583;28;20778;-69
2021/12/18 00:04:23;;;;;;;2.30;1.60;;;5.40;99.90;;;;;;4953546;28;20174;-69
2021/12/18 00:06:49;;;;;;;1.70;1.07;;;5.50;99.90;;;;;;4953733;28;20170;-69
2021/12/18 00:09:15;;;;;;;5.63;1.97;;;5.50;99.90;;;;;;4953416;28;20197;-69
2021/12/18 00:11:40;;;;;;;2.60;2.40;;;5.50;99.90;;;;;;4953509;28;20673;-69
2021/12/18 00:14:06;;;;;;;2.03;1.80;;;5.50;99.90;;;;;;4953371;28;20182;-69
2021/12/18 00:16:31;;;;;;;2.77;1.83;;;5.40;99.90;;;;;;4953446;28;20249;-69
2021/12/18 00:18:58;;;;;;;3.27;2.03;;;5.40;99.90;;;;;;4953600;28;20239;-69
2021/12/18 00:21:24;;;;;;;1.70;1.60;;;5.40;99.90;;;;;;4953533;28;20194;-69
2021/12/18 00:23:50;;;;;;;3.67;2.80;;;5.50;99.90;;;;;;4955011;28;20496;-69
2021/12/18 00:26:16;;;;;;;4.23;2.20;;;5.50;99.90;;;;;;4957152;28;20492;-69
2021/12/18 00:28:42;;;;;;;2.23;1.57;;;5.60;99.90;;;;;;4957584;28;20201;-69
2021/12/18 00:31:07;;;;;;;2.73;2.07;;;5.60;99.90;;;;;;4956638;28;20872;-69
2021/12/18 00:33:33;;;;;;;2.17;1.50;;;5.60;99.90;;;;;;4957109;28;20665;-69
2021/12/18 00:35:58;;;;;;;4.93;1.70;;;5.50;99.90;;;;;;4957022;28;20162;-69
2021/12/18 00:38:29;;;;;;;3.90;2.37;;;5.50;99.90;;;;;;4957019;28;20177;-68
2021/12/18 00:43:38;;;;;;;2.60;2.40;;;5.50;99.90;;;;;;4957296;28;20437;-71
2021/12/18 00:46:04;;;;;;;1.37;1.27;;;5.50;99.90;;;;;;4955723;29;20405;-69
2021/12/18 00:48:30;;;;;;;4.23;1.77;;;5.50;99.90;;;;;;4956828;28;20417;-69
2021/12/18 00:50:55;;;;;;;1.87;1.77;;;5.50;99.90;;;;;;4956579;28;20457;-69
2021/12/18 00:53:21;;;;;;;4.47;2.47;;;5.50;99.90;;;;;;4956628;28;20692;-69
2021/12/18 00:55:49;;;;;;;1.70;1.60;;;5.50;99.90;;;;;;4956743;28;20170;-69
2021/12/18 00:58:14;;;;;;;4.70;2.33;;;5.50;99.90;;;;;;4956668;28;20704;-69
2021/12/18 01:00:42;;;;;;;1.43;1.33;;;5.60;99.90;;;;;;4956568;28;20444;-69
2021/12/18 01:03:18;;;;;;;2.00;1.63;;;5.60;99.90;;;;;;4956872;28;20182;-69
2021/12/18 01:05:45;;;;;;;1.50;1.20;;;5.60;99.90;;;;;;4955339;29;20492;-70
2021/12/18 01:08:11;;;;;;;1.50;1.40;;;5.50;99.90;;;;;;4956714;28;20410;-69
2021/12/18 01:11:12;;;;;;;2.57;1.23;;;5.50;99.90;;;;;;4956474;28;21030;-70
2021/12/18 01:13:49;;;;;;;1.83;1.30;;;5.50;99.90;;;;;;4956299;28;20167;-69
2021/12/18 01:16:20;;;;;;;1.10;1.00;;;5.50;99.90;;;;;;4956387;28;20387;-69
2021/12/18 01:24:14;;;;;;;1.27;1.13;;;5.60;99.90;;;;;;4956595;29;20405;-69
2021/12/18 01:26:39;;;;;;;1.60;1.50;;;5.60;99.90;;;;;;4956180;28;20414;-70
2021/12/18 01:29:05;;;;;;;1.47;1.30;;;5.60;99.90;;;;;;4956110;28;20345;-69
2021/12/18 01:31:30;;;;;;;1.93;1.83;;;5.50;99.90;;;;;;4956103;28;20221;-69
2021/12/18 01:33:56;;;;;;;1.47;1.37;;;5.40;99.90;;;;;;4956197;28;20181;-69
2021/12/18 01:36:21;;;;;;;1.47;1.13;;;5.50;99.90;;;;;;4968675;28;20188;-69
2021/12/18 01:38:47;;;;;;;4.43;1.47;;;5.50;99.90;;;;;;4974326;28;20543;-69
2021/12/18 01:41:15;;;;;;;1.30;1.20;;;5.50;99.90;;;;;;4973609;28;20568;-70
2021/12/18 01:46:43;;;;;;;2.13;2.00;;;5.40;99.90;;;;;;4975349;28;20416;-70
2021/12/18 01:52:04;;;;;;;1.87;1.67;;;5.40;99.90;;;;;;4975623;28;20599;-69
2021/12/18 01:54:30;;;;;;;2.60;1.17;;;5.30;99.90;;;;;;4974753;28;20389;-70
2021/12/18 01:56:56;;;;;;;1.37;1.27;;;5.40;99.90;;;;;;4975204;28;20405;-69
2021/12/18 01:59:37;;;;;;;3.37;1.43;;;5.30;99.90;;;;;;4974753;28;20430;-70
2021/12/18 02:02:02;;;;;;;1.57;1.43;;;5.40;99.90;;;;;;4974872;28;20878;-70
2021/12/18 02:04:28;;;;;;;1.83;1.23;;;5.40;99.90;;;;;;4974772;28;20496;-69
2021/12/18 02:06:53;;;;;;;0.97;0.90;;;5.40;99.90;;;;;;4975019;28;20172;-69
2021/12/18 02:09:21;;;;;;;1.00;0.90;;;5.40;99.90;;;;;;4974514;28;20202;-69
2021/12/18 02:11:47;;;;;;;1.40;1.03;;;5.40;99.90;;;;;;4974715;28;20193;-70
2021/12/18 02:20:11;;;;;;;1.20;1.10;;;5.50;99.90;;;;;;4973957;28;20483;-70
2021/12/18 02:22:36;;;;;;;1.63;1.13;;;5.50;99.90;;;;;;4973943;28;20386;-69
2021/12/18 02:25:02;;;;;;;1.00;0.90;;;5.50;99.90;;;;;;4973849;28;20413;-70
2021/12/18 02:27:28;;;;;;;2.27;1.60;;;5.50;99.90;;;;;;4973710;28;20221;-69
2021/12/18 02:29:53;;;;;;;1.63;1.33;;;5.50;99.90;;;;;;4973383;28;20578;-69
2021/12/18 02:32:21;;;;;;;2.67;1.53;;;5.60;99.90;;;;;;4973652;28;20414;-69
2021/12/18 02:34:53;;;;;;;1.53;1.33;;;5.60;99.90;;;;;;4973464;28;20166;-69
2021/12/18 02:37:28;;;;;;;1.63;1.37;;;5.60;99.90;;;;;;4973688;28;20476;-70
2021/12/18 02:40:50;;;;;;;1.90;1.77;;;5.60;99.90;;;;;;4973446;28;20425;-69
2021/12/18 02:42:42;;;;;;;2.30;1.47;;;5.60;99.90;;;;;;4973319;28;20413;-69
2021/12/18 02:45:09;;;;;;;1.43;1.33;;;5.40;99.90;;;;;;4973417;28;20413;-69
2021/12/18 02:47:35;;;;;;;1.60;1.50;;;5.50;99.90;;;;;;4973019;28;20241;-69
2021/12/18 02:50:00;;;;;;;2.50;1.97;;;5.50;99.90;;;;;;4973173;28;20448;-69
2021/12/18 02:52:28;;;;;;;1.63;1.47;;;5.50;99.90;;;;;;4973324;28;20237;-69
2021/12/18 02:54:54;;;;;;;1.53;1.33;;;5.50;99.90;;;;;;4973499;28;20201;-69
2021/12/18 02:57:20;;;;;;;2.67;1.13;;;5.50;99.90;;;;;;4973273;28;20401;-70
2021/12/18 02:59:48;;;;;;;1.57;1.20;;;5.50;99.90;;;;;;4973184;28;20194;-70
2021/12/18 03:02:15;;;;;;;5.03;1.70;;;5.60;99.90;;;;;;4973218;28;20174;-70
2021/12/18 03:04:43;;;;;;;1.73;1.60;;;5.60;99.90;;;;;;4973136;28;20405;-70
2021/12/18 03:07:11;;;;;;;1.20;1.10;;;5.60;99.90;;;;;;4968182;28;20438;-70
2021/12/18 03:18:59;;;;;;;1.30;1.20;;;5.60;99.90;;;;;;4973236;28;20432;-70
2021/12/18 03:21:40;;;;;;;3.37;2.23;;;5.60;99.90;;;;;;4972911;28;20964;-69
2021/12/18 03:23:46;;;;;;;1.70;1.03;;;5.50;99.90;;;;;;4969736;28;20450;-70
2021/12/18 03:26:13;;;;;;;1.40;1.30;;;5.60;99.90;;;;;;4953483;28;20738;-70
2021/12/18 03:28:39;;;;;;;1.33;1.23;;;5.60;99.90;;;;;;4953359;28;20414;-69
2021/12/18 03:31:05;;;;;;;3.20;2.00;;;5.60;99.90;;;;;;4953228;29;21068;-69
2021/12/18 03:33:30;;;;;;;1.57;1.47;;;5.60;99.90;;;;;;4953455;29;20253;-70
2021/12/18 03:35:56;;;;;;;1.73;1.10;;;5.60;99.90;;;;;;4965520;28;20228;-70
2021/12/18 03:38:21;;;;;;;6.00;2.33;;;5.60;99.90;;;;;;4972825;28;20207;-70
2021/12/18 03:40:47;;;;;;;2.70;2.27;;;5.60;99.90;;;;;;4972607;28;20220;-70
2021/12/18 03:43:13;;;;;;;1.70;1.60;;;5.60;99.90;;;;;;4973025;28;20177;-70
2021/12/18 03:45:38;;;;;;;1.30;1.10;;;5.50;99.90;;;;;;4972505;28;20605;-70
2021/12/18 03:48:04;;;;;;;4.50;1.30;;;5.50;99.90;;;;;;4972565;28;20178;-69
2021/12/18 03:50:29;;;;;;;3.10;1.73;;;5.50;99.90;;;;;;4972278;28;20710;-70
2021/12/18 03:52:55;;;;;;;2.10;1.73;;;5.50;99.90;;;;;;4972880;28;20220;-70
2021/12/18 03:55:21;;;;;;;2.10;1.47;;;5.60;99.90;;;;;;4972510;28;20625;-70
2021/12/18 03:57:47;;;;;;;1.43;1.33;;;5.50;99.90;;;;;;4971702;28;20454;-70
2021/12/18 04:00:15;;;;;;;2.13;1.20;;;5.50;99.90;;;;;;4972327;28;20280;-70
2021/12/18 04:02:41;;;;;;;1.63;1.33;;;5.50;99.90;;;;;;4972428;28;20177;-70
2021/12/18 04:05:08;;;;;;;1.43;1.10;;;5.50;99.90;;;;;;4972260;28;20471;-70
2021/12/18 04:07:40;;;;;;;2.53;1.70;;;5.50;99.90;;;;;;4978674;28;20416;-70
2021/12/18 04:10:08;;;;;;;1.40;1.10;;;5.50;99.90;;;;;;4991648;28;20435;-70
2021/12/18 04:12:33;;;;;;;6.20;2.30;;;5.60;99.90;;;;;;4991520;28;20412;-70
2021/12/18 04:14:59;;;;;;;1.50;1.40;;;5.60;99.90;;;;;;4986877;28;20408;-70
2021/12/18 04:17:24;;;;;;;1.93;1.50;;;5.50;99.90;;;;;;4972093;28;20204;-70
2021/12/18 04:19:49;;;;;;;2.53;1.97;;;5.50;99.90;;;;;;4972106;28;20256;-70
2021/12/18 04:22:15;;;;;;;2.40;1.17;;;5.50;99.90;;;;;;4972096;28;20201;-70
2021/12/18 04:24:40;;;;;;;2.60;1.33;;;5.50;99.90;;;;;;4972470;28;20228;-70
2021/12/18 04:27:06;;;;;;;1.63;1.30;;;5.50;99.90;;;;;;4972050;28;20176;-70
2021/12/18 04:29:31;;;;;;;1.70;1.57;;;5.50;99.90;;;;;;4971934;28;20259;-70
2021/12/18 04:31:57;;;;;;;2.40;2.13;;;5.50;99.90;;;;;;4972053;28;20344;-70
2021/12/18 04:34:22;;;;;;;1.40;1.30;;;5.60;99.90;;;;;;4972519;28;20177;-70
2021/12/18 04:36:48;;;;;;;2.03;1.53;;;5.50;99.90;;;;;;4972055;28;20193;-70
2021/12/18 04:39:13;;;;;;;2.60;2.00;;;5.60;99.90;;;;;;4972075;28;20228;-70
2021/12/18 04:41:48;;;;;;;3.13;1.70;;;5.50;99.90;;;;;;4971946;28;20547;-70
2021/12/18 04:44:13;;;;;;;2.47;1.40;;;5.50;99.90;;;;;;4971948;28;20182;-70
2021/12/18 04:46:39;;;;;;;1.37;1.10;;;5.50;99.90;;;;;;4971814;28;20413;-70
2021/12/18 04:49:04;;;;;;;2.57;1.30;;;5.60;99.90;;;;;;4971145;28;20343;-70
2021/12/18 04:51:30;;;;;;;1.20;1.10;;;5.50;99.90;;;;;;4971209;28;20202;-70
2021/12/18 04:53:55;;;;;;;1.97;1.37;;;5.40;99.90;;;;;;4971417;28;20170;-70
2021/12/18 04:56:21;;;;;;;2.23;1.60;;;5.50;99.90;;;;;;4971392;28;20174;-70
2021/12/18 04:58:46;;;;;;;3.90;1.50;;;5.50;99.90;;;;;;4971334;28;20208;-70
2021/12/18 05:01:12;;;;;;;1.57;1.30;;;5.50;99.90;;;;;;4972491;28;20174;-71
2021/12/18 05:03:40;;;;;;;1.83;1.40;;;5.50;99.90;;;;;;4971410;28;20547;-70
2021/12/18 05:06:05;;;;;;;1.30;1.10;;;5.40;99.90;;;;;;4971473;28;20593;-71
2021/12/18 05:08:30;;;;;;;2.10;1.10;;;5.50;99.90;;;;;;4971586;28;20468;-70
2021/12/18 05:10:56;;;;;;;2.40;1.37;;;5.50;99.90;;;;;;4973975;28;20260;-70
2021/12/18 05:13:22;;;;;;;1.80;1.50;;;5.50;99.90;;;;;;4974566;28;20181;-70
2021/12/18 05:15:47;;;;;;;2.73;1.60;;;5.60;99.90;;;;;;4974974;28;20836;-70
2021/12/18 05:18:13;;;;;;;1.47;1.30;;;5.60;99.90;;;;;;4974581;28;20174;-70
2021/12/18 05:20:39;;;;;;;1.70;1.60;;;5.60;99.90;;;;;;4974666;28;20190;-70
2021/12/18 05:23:04;;;;;;;1.07;1.03;;;5.60;99.90;;;;;;4974872;28;20320;-70
2021/12/18 05:25:30;;;;;;;1.33;1.23;;;5.50;99.90;;;;;;4975146;28;20288;-70
2021/12/18 05:27:56;;;;;;;2.00;1.80;;;5.60;99.90;;;;;;4975245;28;20177;-70
2021/12/18 05:30:21;;;;;;;1.43;1.20;;;5.60;99.90;;;;;;4997297;23;20184;-72
2021/12/18 05:32:47;;;;;;;0.90;0.73;;;5.70;99.90;;;;;;4975342;28;20655;-71
2021/12/18 05:35:15;;;;;;;1.37;1.27;;;5.60;99.90;;;;;;4975642;28;20177;-71
2021/12/18 05:37:47;;;;;;;2.10;1.30;;;5.60;99.90;;;;;;4976123;28;20252;-72
2021/12/18 05:40:18;;;;;;;2.73;1.37;;;5.60;99.90;;;;;;4976011;28;20393;-71
2021/12/18 05:42:44;;;;;;;1.30;1.10;;;5.60;99.90;;;;;;4976388;28;20398;-71
2021/12/18 05:45:09;;;;;;;2.03;1.90;;;5.60;99.90;;;;;;4976253;28;20415;-71
2021/12/18 05:47:35;;;;;;;3.30;2.23;;;5.60;99.90;;;;;;4975884;28;20766;-71
2021/12/18 05:50:02;;;;;;;5.87;1.30;;;5.60;99.90;;;;;;4975485;28;20185;-71
2021/12/18 05:52:28;;;;;;;3.40;1.20;;;5.60;99.90;;;;;;4975428;28;20278;-71
2021/12/18 05:54:53;;;;;;;2.00;1.20;;;5.50;99.90;;;;;;4975394;28;20409;-72
2021/12/18 05:57:19;;;;;;;1.03;0.90;;;5.50;99.90;;;;;;4975393;28;20173;-72
2021/12/18 05:59:44;;;;;;;2.40;1.10;;;5.60;99.90;;;;;;4975220;28;20204;-72
2021/12/18 06:02:10;;;;;;;2.27;1.10;;;5.60;99.90;;;;;;4975614;28;20538;-72
2021/12/18 06:04:36;;;;;;;3.13;1.80;;;5.60;99.90;;;;;;4975120;28;20240;-73
2021/12/18 06:07:06;;;;;;;1.10;1.00;;;5.60;99.90;;;;;;4975171;28;20174;-72
2021/12/18 06:09:35;;;;;;;1.07;1.00;;;5.60;99.90;;;;;;4975337;28;20185;-72
2021/12/18 06:12:01;;;;;;;4.30;1.83;;;5.60;99.90;;;;;;4974852;28;20464;-70
2021/12/18 06:14:28;;;;;;;1.23;1.03;;;5.50;99.90;;;;;;4973489;28;20471;-71
2021/12/18 06:16:53;;;;;;;2.60;1.60;;;5.50;99.90;;;;;;4974756;28;21023;-71
2021/12/18 06:19:19;;;;;;;1.93;1.00;;;5.50;99.90;;;;;;4974814;28;20429;-71
2021/12/18 06:21:45;;;;;;;0.97;0.93;;;5.60;99.90;;;;;;4972699;28;20197;-71
2021/12/18 06:24:10;;;;;;;1.03;1.00;;;5.50;99.90;;;;;;4974727;28;20197;-71
2021/12/18 06:26:36;;;;;;;2.10;1.00;;;5.50;99.90;;;;;;4974632;28;20180;-72
2021/12/18 06:29:01;;;;;;;1.07;0.90;;;5.50;99.90;;;;;;4974725;28;20235;-71
2021/12/18 06:31:27;;;;;;;1.73;1.60;;;5.50;99.90;;;;;;4974532;28;20718;-71
2021/12/18 06:33:52;;;;;;;3.10;2.87;;;5.50;99.90;;;;;;4974676;28;20655;-72
2021/12/18 06:36:18;;;;;;;5.80;1.57;;;5.50;99.90;;;;;;4974450;28;20202;-71
2021/12/18 06:38:43;;;;;;;1.67;1.40;;;5.50;99.90;;;;;;4974707;28;20177;-71
2021/12/18 06:41:09;;;;;;;1.40;1.30;;;5.60;99.90;;;;;;4974345;28;20190;-72
2021/12/18 06:43:34;;;;;;;2.93;1.77;;;5.60;99.90;;;;;;4974400;28;20185;-72
2021/12/18 06:45:59;;;;;;;2.67;2.07;;;5.50;99.90;;;;;;4974160;28;20634;-72
2021/12/18 06:48:25;;;;;;;2.30;0.90;;;5.50;99.90;;;;;;4974283;28;20177;-72
2021/12/18 06:50:50;;;;;;;5.37;1.93;;;5.50;99.90;;;;;;4974220;28;20213;-71
2021/12/18 06:53:16;;;;;;;3.07;1.50;;;5.50;99.90;;;;;;4972837;28;20201;-71
2021/12/18 06:55:42;;;;;;;2.70;1.20;;;5.50;99.90;;;;;;4974077;28;20178;-71
2021/12/18 06:58:07;;;;;;;3.47;1.43;;;5.50;99.90;;;;;;4973946;28;20180;-71
2021/12/18 07:00:33;;;;;;;1.40;1.30;;;5.50;99.90;;;;;;4974080;28;20193;-72
2021/12/18 07:02:58;;;;;;;2.37;1.80;;;5.50;99.90;;;;;;4973936;28;20189;-71
2021/12/18 07:05:24;;;;;;;2.20;1.50;;;5.60;99.90;;;;;;4974170;28;20220;-71
2021/12/18 07:07:50;;;;;;;1.90;1.10;;;5.60;99.90;;;;;;4974044;28;20321;-71
2021/12/18 07:10:16;;;;;;;1.83;1.10;;;5.60;99.90;;;;;;4973906;28;20174;-71
2021/12/18 07:12:42;;;;;;;1.40;1.30;;;5.60;99.90;;;;;;4973930;28;20420;-73
2021/12/18 07:15:10;;;;;;;1.30;1.20;;;5.50;99.90;;;;;;4973914;28;20427;-72
2021/12/18 07:17:35;;;;;;;1.90;1.63;;;5.60;99.90;;;;;;4973837;28;20413;-72
2021/12/18 07:20:01;;;;;;;1.27;1.17;;;5.60;99.90;;;;;;4973965;28;20416;-71
2021/12/18 07:22:27;;;;;;;3.00;2.17;;;5.60;99.90;;;;;;4973896;28;20237;-72
2021/12/18 07:24:52;;;;;;;1.00;0.90;;;5.60;99.90;;;;;;4974251;28;20460;-72
2021/12/18 07:27:18;;;;;;;1.53;1.30;;;5.60;99.90;;;;;;4975097;28;20188;-71
2021/12/18 07:29:43;;;;;;;0.97;0.90;;;5.60;99.90;;;;;;4977331;28;20216;-72
2021/12/18 07:32:09;;;;;;;2.43;1.33;;;5.60;99.90;;;;;;4974122;28;20300;-72
2021/12/18 07:34:35;;;;;;;1.30;1.20;;;5.60;99.90;;;;;;4973604;28;20181;-71
2021/12/18 07:37:01;;;;;;;1.80;1.50;;;5.60;99.90;;;;;;4973645;28;20169;-72
2021/12/18 07:39:27;;;;;;;1.27;0.90;;;5.60;99.90;;;;;;4973486;28;20508;-72
2021/12/18 07:41:52;;;;;;;1.13;1.00;;;5.60;99.90;;;;;;4973303;28;20540;-71
2021/12/18 07:44:17;;;;;;;1.47;1.37;;;5.70;99.90;;;;;;4973536;28;20192;-72
2021/12/18 07:46:43;;;;;;;1.40;1.30;;;5.70;99.90;;;;;;4973545;28;20615;-71
2021/12/18 07:49:09;;;;;;;3.10;1.50;;;5.70;99.90;;;;;;4973287;28;20177;-71
2021/12/18 07:51:35;;;;;;;2.87;1.37;;;5.70;99.90;;;;;;4973304;28;20204;-72
2021/12/18 07:54:02;;;;;;;1.40;1.30;;;5.70;99.90;;;;;;4973410;28;20187;-72
2021/12/18 07:56:27;;;;;;;1.73;1.63;;;5.70;99.90;;;;;;4973188;28;20767;-72
2021/12/18 07:58:53;;;;;;;2.97;1.20;;;5.60;99.90;;;;;;4973872;28;20423;-72
2021/12/18 08:01:18;;;;;;;1.67;1.57;;;5.60;99.90;;;;;;4973692;28;20216;-72
2021/12/18 08:03:44;;;;;;;1.43;1.33;;;5.60;99.90;;;;;;4973817;28;20186;-72
2021/12/18 08:06:09;;;;;;;1.20;1.10;;;5.50;99.90;;;;;;4973556;28;20203;-72
2021/12/18 08:08:35;;;;;;;1.70;1.23;;;5.60;99.90;;;;;;4973274;28;20176;-72
2021/12/18 08:11:01;;;;;;;1.10;0.90;;;5.60;99.90;;;;;;4973025;28;20635;-72
2021/12/18 08:13:27;;;;;;;1.67;1.00;;;5.60;99.90;;;;;;4973159;28;20405;-71
2021/12/18 08:15:52;;;;;;;1.40;1.30;;;5.60;99.90;;;;;;4973085;28;20663;-72
2021/12/18 08:18:17;;;;;;;2.47;1.47;;;5.70;99.90;;;;;;4973080;28;20236;-73
2021/12/18 08:20:43;;;;;;;1.90;1.67;;;5.60;99.90;;;;;;4973145;28;20198;-71
2021/12/18 08:23:09;;;;;;;3.20;1.50;;;5.60;99.90;;;;;;4972960;28;20185;-72
2021/12/18 08:25:35;;;;;;;6.60;2.10;;;5.70;99.90;;;;;;4972782;28;20185;-72
2021/12/18 08:28:02;;;;;;;1.60;1.43;;;5.70;99.90;;;;;;4973323;28;20541;-72
2021/12/18 08:30:29;;;;;;;2.83;2.10;;;5.70;99.90;;;;;;4972847;28;20547;-72
2021/12/18 08:32:56;;;;;;;1.87;1.40;;;5.80;99.90;;;;;;4973139;28;20413;-71
2021/12/18 08:35:22;;;;;;;1.63;1.23;;;5.70;99.90;;;;;;4973227;28;20452;-73
2021/12/18 08:37:47;;;;;;;2.00;1.40;;;5.60;99.90;;;;;;4973425;28;20462;-72
2021/12/18 08:40:13;;;;;;;1.50;0.80;;;5.60;99.90;;;;;;4972868;28;20492;-72
2021/12/18 08:42:39;;;;;;;1.80;1.40;;;5.50;99.90;;;;;;4973089;28;20260;-72
2021/12/18 08:45:05;;;;;;;1.37;1.17;;;5.50;99.90;;;;;;4973563;28;20181;-72
2021/12/18 08:47:31;;;;;;;2.63;2.43;;;5.50;99.90;;;;;;4976852;28;20412;-72
2021/12/18 08:49:56;;;;;;;2.03;1.20;;;5.50;99.90;;;;;;4976842;28;20413;-73
2021/12/18 08:52:22;;;;;;;1.47;1.37;;;5.70;99.90;;;;;;4976874;28;20240;-72
2021/12/18 08:54:48;;;;;;;1.30;1.20;;;5.50;99.90;;;;;;4974955;28;20185;-72
2021/12/18 08:57:13;;;;;;;1.80;1.70;;;5.70;99.90;;;;;;4976366;28;20181;-72
2021/12/18 08:59:39;;;;;;;2.10;1.53;;;5.60;99.90;;;;;;4976336;28;20174;-72
2021/12/18 09:02:09;;;;;;;2.30;1.37;;;5.60;99.90;;;;;;4976456;28;20239;-72
2021/12/18 09:04:35;;;;;;;0.80;0.80;;;5.60;99.90;;;;;;4975999;28;20186;-72
2021/12/18 09:07:01;;;;;;;2.90;2.07;;;5.60;99.90;;;;;;4976009;28;20495;-72
2021/12/18 09:09:26;;;;;;;1.73;1.10;;;5.60;99.90;;;;;;4976154;28;20508;-72
2021/12/18 09:11:52;;;;;;;1.83;1.27;;;5.70;99.90;;;;;;4975962;28;20233;-72
2021/12/18 09:14:18;;;;;;;1.33;1.23;;;5.70;99.90;;;;;;4974797;28;20586;-71
2021/12/18 09:16:43;;;;;;;1.40;1.20;;;5.70;99.90;;;;;;4975938;28;20202;-71
2021/12/18 09:19:09;;;;;;;2.67;1.80;;;5.70;99.90;;;;;;4975943;28;20177;-72
2021/12/18 09:21:34;;;;;;;2.17;1.97;;;5.70;99.90;;;;;;4975856;28;20194;-72
2021/12/18 09:24:00;;;;;;;2.00;1.13;;;5.70;99.90;;;;;;4975696;28;20174;-72
2021/12/18 09:26:25;;;;;;;1.37;1.03;;;5.80;99.90;;;;;;4975548;28;20189;-73
2021/12/18 09:28:51;;;;;;;1.37;1.27;;;5.80;99.90;;;;;;4976019;28;20620;-72
2021/12/18 09:31:16;;;;;;;3.93;1.00;;;5.80;99.90;;;;;;4975603;28;20216;-72
2021/12/18 09:33:42;;;;;;;1.37;1.10;;;6.00;99.90;;;;;;4975805;28;20531;-72
2021/12/18 09:36:07;;;;;;;2.30;1.47;;;6.10;99.90;;;;;;4975787;28;20170;-72
2021/12/18 09:38:33;;;;;;;1.30;1.20;;;6.10;99.90;;;;;;4975637;28;20169;-72
2021/12/18 09:41:01;;;;;;;3.27;2.07;;;6.20;99.90;;;;;;4975523;28;20688;-72
2021/12/18 09:43:26;;;;;;;1.53;1.27;;;6.10;99.90;;;;;;4974351;28;20174;-72
2021/12/18 09:45:52;;;;;;;2.30;1.30;;;6.20;99.90;;;;;;4975622;28;20408;-72
2021/12/18 09:48:21;;;;;;;1.60;1.37;;;6.20;99.90;;;;;;4975452;28;20198;-72
2021/12/18 09:50:55;;;;;;;1.43;1.23;;;6.00;99.90;;;;;;4975536;28;20233;-74
2021/12/18 09:53:20;;;;;;;3.67;1.13;;;5.90;99.90;;;;;;4975549;28;20827;-72
2021/12/18 09:55:46;;;;;;;1.40;1.30;;;6.00;99.90;;;;;;4974288;28;20553;-72
2021/12/18 09:58:11;;;;;;;1.37;1.27;;;6.00;99.90;;;;;;4975336;28;20177;-73
2021/12/18 10:00:37;;;;;;;1.53;1.40;;;6.00;99.90;;;;;;4975763;28;20201;-71
2021/12/18 10:03:03;;;;;;;1.20;1.13;;;6.10;99.90;;;;;;4975248;28;20256;-72
2021/12/18 10:05:31;;;;;;;2.30;1.10;;;6.10;99.90;;;;;;4975162;28;20245;-74
2021/12/18 10:08:10;;;;;;;1.97;1.30;;;6.10;99.90;;;;;;4975325;28;20212;-72
2021/12/18 10:10:37;;;;;;;2.07;1.90;;;6.10;99.90;;;;;;4975182;28;20503;-72
2021/12/18 10:13:08;;;;;;;3.90;1.67;;;6.00;99.90;;;;;;4975494;28;20472;-71
2021/12/18 10:15:35;;;;;;;1.53;1.00;;;6.00;99.90;;;;;;4973998;28;20428;-72
2021/12/18 10:18:11;;;;;;;2.20;1.63;;;6.10;99.90;;;;;;4974106;28;20423;-72
2021/12/18 10:20:38;;;;;;;3.60;1.53;;;6.10;99.90;;;;;;4969487;28;20909;-73
2021/12/18 10:23:05;;;;;;;1.87;1.13;;;6.10;99.90;;;;;;4971659;28;20901;-72
2021/12/18 10:25:42;;;;;;;1.63;1.10;;;6.20;99.90;;;;;;4956254;28;20406;-72
2021/12/18 10:28:16;;;;;;;1.30;1.20;;;6.20;99.90;;;;;;4961421;28;20480;-72
2021/12/18 10:30:50;;;;;;;2.83;2.53;;;6.20;99.90;;;;;;4955229;28;20981;-72
2021/12/18 10:33:16;;;;;;;1.50;1.40;;;6.20;99.90;;;;;;4957000;28;20779;-71
2021/12/18 10:35:51;;;;;;;1.37;1.23;;;6.20;99.90;;;;;;4974864;28;20472;-72
2021/12/18 10:38:50;;;;;;;2.37;1.50;;;6.20;99.90;;;;;;4974727;28;20936;-73
2021/12/18 10:41:26;;;;;;;2.77;1.37;;;6.20;99.90;;;;;;4974943;28;20433;-72
2021/12/18 10:44:13;;;;;;;1.77;1.67;;;6.20;99.90;;;;;;4975031;28;20412;-72
2021/12/18 10:46:44;;;;;;;1.73;1.20;;;6.40;99.90;;;;;;4974722;28;20431;-72
2021/12/18 10:49:21;;;;;;;3.10;1.87;;;6.30;99.90;;;;;;4975959;28;20397;-72
2021/12/18 10:51:48;;;;;;;4.30;1.97;;;6.30;99.90;;;;;;4975390;28;20829;-72
2021/12/18 10:54:17;;;;;;;1.87;1.50;;;6.30;99.90;;;;;;4960065;28;20519;-71
2021/12/18 10:56:46;;;;;;;1.90;1.43;;;6.30;99.90;;;;;;4974263;28;20409;-73
2021/12/18 10:59:22;;;;;;;2.03;1.70;;;6.20;99.90;;;;;;4974681;28;20844;-73
2021/12/18 11:01:53;;;;;;;1.80;1.57;;;6.30;99.90;;;;;;4974123;28;20489;-74
2021/12/18 11:04:29;;;;;;;1.43;1.27;;;6.40;99.90;;;;;;4974246;28;20424;-73
2021/12/18 11:06:56;;;;;;;1.97;1.63;;;6.40;99.90;;;;;;4973765;28;20405;-72
2021/12/18 11:09:31;;;;;;;1.50;1.40;;;6.40;99.90;;;;;;4973892;28;20444;-72
2021/12/18 11:14:32;;;;;;;3.43;1.47;;;6.40;99.90;;;;;;4973947;28;20563;-72
2021/12/18 11:16:59;;;;;;;4.53;2.13;;;6.50;99.90;;;;;;4974097;28;20393;-72
2021/12/18 11:19:27;;;;;;;2.63;2.47;;;6.50;99.90;;;;;;4976197;28;20412;-72
2021/12/18 11:22:01;;;;;;;4.33;1.60;;;6.50;99.90;;;;;;4973679;28;20452;-71
2021/12/18 11:24:35;;;;;;;1.17;0.97;;;6.50;99.90;;;;;;4973607;28;20922;-72
2021/12/18 11:27:21;;;;;;;2.47;1.33;;;6.40;99.90;;;;;;4965081;28;20412;-72
2021/12/18 11:29:57;;;;;;;2.17;1.60;;;6.50;99.90;;;;;;4993414;28;20953;-72
2021/12/18 11:32:32;;;;;;;1.00;0.90;;;6.40;99.90;;;;;;4990037;23;20484;-70
2021/12/18 11:35:03;;;;;;;1.40;1.30;;;6.40;99.90;;;;;;4972043;28;20540;-70
2021/12/18 11:37:38;;;;;;;1.70;1.10;;;6.50;99.90;;;;;;4970975;28;20776;-70
2021/12/18 11:40:05;;;;;;;1.90;0.90;;;6.50;99.90;;;;;;4972268;28;20439;-70
2021/12/18 11:42:32;;;;;;;2.03;1.00;;;6.50;99.90;;;;;;4972218;28;20827;-70
2021/12/18 11:45:01;;;;;;;1.40;1.30;;;6.50;99.90;;;;;;4972088;28;20397;-69
2021/12/18 11:47:43;;;;;;;2.03;0.90;;;6.60;99.90;;;;;;4972134;28;20405;-69
2021/12/18 11:50:26;;;;;;;1.57;1.40;;;6.60;99.90;;;;;;4972105;28;20413;-69
2021/12/18 11:53:04;;;;;;;1.10;1.00;;;6.70;99.90;;;;;;4971992;28;20474;-69
2021/12/18 11:55:44;;;;;;;1.23;1.00;;;6.50;99.90;;;;;;4971915;28;20818;-69
2021/12/18 11:58:14;;;;;;;0.90;0.90;;;6.50;99.90;;;;;;4972605;28;20412;-70
2021/12/18 12:00:44;;;;;;;0.70;0.70;;;6.60;99.90;;;;;;4971052;28;20749;-69
2021/12/18 12:03:26;;;;;;;0.77;0.77;;;6.60;99.90;;;;;;4972088;28;20463;-70
2021/12/18 12:05:52;;;;;;;2.40;2.20;;;6.70;99.90;;;;;;4972298;28;20386;-70
2021/12/18 12:08:32;;;;;;;1.40;1.30;;;6.70;99.90;;;;;;4972094;28;20405;-73
2021/12/18 12:11:06;;;;;;;1.27;1.17;;;6.60;99.90;;;;;;4972773;28;20456;-70
2021/12/18 12:14:00;;;;;;;3.80;1.33;;;6.70;99.90;;;;;;4971218;28;20466;-70
2021/12/18 12:16:46;;;;;;;5.07;1.23;;;6.70;99.90;;;;;;4964391;28;20438;-70
2021/12/18 12:19:20;;;;;;;1.90;1.07;;;6.70;99.90;;;;;;4972369;28;20577;-70
2021/12/18 12:21:52;;;;;;;1.10;1.00;;;6.70;99.90;;;;;;4973030;28;21059;-70
2021/12/18 12:24:20;;;;;;;1.20;1.10;;;6.80;99.90;;;;;;4975803;28;20788;-70
2021/12/18 12:26:46;;;;;;;0.90;0.90;;;6.80;99.90;;;;;;4976270;28;20759;-70
2021/12/18 12:29:14;;;;;;;1.83;1.13;;;6.80;99.90;;;;;;4989470;28;20425;-70
2021/12/18 12:31:57;;;;;;;1.17;1.07;;;6.70;99.90;;;;;;4977260;28;20468;-70
2021/12/18 12:34:25;;;;;;;1.80;1.70;;;6.70;99.90;;;;;;4974422;28;20404;-69
2021/12/18 12:36:58;;;;;;;1.90;1.20;;;6.90;99.90;;;;;;4975536;28;20405;-69
2021/12/18 12:39:25;;;;;;;1.67;1.43;;;7.00;99.90;;;;;;4976283;28;20492;-69
2021/12/18 12:41:52;;;;;;;1.17;0.93;;;7.00;99.90;;;;;;4975166;28;20516;-69
2021/12/18 12:44:32;;;;;;;2.03;1.30;;;6.90;99.90;;;;;;4975068;28;20408;-69
2021/12/18 12:47:19;;;;;;;1.63;1.40;;;7.00;99.90;;;;;;4975346;28;20458;-69
2021/12/18 12:49:47;;;;;;;0.70;0.70;;;7.10;99.90;;;;;;4975090;28;20436;-69
2021/12/18 12:52:21;;;;;;;1.47;0.93;;;7.40;99.90;;;;;;4974726;28;20468;-70
2021/12/18 12:54:59;;;;;;;1.63;1.20;;;7.40;99.90;;;;;;4975183;28;20464;-70
2021/12/18 12:57:26;;;;;;;1.30;1.00;;;8.20;99.90;;;;;;4975032;28;20796;-70
2021/12/18 12:59:57;;;;;;;1.20;0.90;;;8.20;99.90;;;;;;4975848;28;20397;-69
2021/12/18 13:02:31;;;;;;;1.10;1.00;;;7.60;99.90;;;;;;4974784;28;20531;-68
2021/12/18 13:05:01;;;;;;;1.17;1.00;;;7.60;99.90;;;;;;4974758;28;20456;-69
2021/12/18 13:07:27;;;;;;;1.27;1.17;;;7.30;99.90;;;;;;4974816;28;20414;-70
2021/12/18 13:09:53;;;;;;;0.70;0.70;;;7.40;99.90;;;;;;4973669;28;20476;-70
2021/12/18 13:12:18;;;;;;;2.40;1.47;;;7.40;99.90;;;;;;4974995;28;20454;-69
2021/12/18 13:14:46;;;;;;;1.33;1.13;;;7.30;99.90;;;;;;4974619;28;20174;-68
2021/12/18 13:17:23;;;;;;;1.20;1.10;;;7.30;99.90;;;;;;4974803;28;20159;-71
2021/12/18 13:20:05;;;;;;;1.37;0.83;;;7.50;99.90;;;;;;4974647;28;20899;-69
2021/12/18 13:22:33;;;;;;;0.97;0.90;;;7.70;99.90;;;;;;4974537;28;20426;-69
2021/12/18 13:25:13;;;;;;;1.43;1.13;;;7.50;99.90;;;;;;4974415;28;20413;-69
2021/12/18 13:27:42;;;;;;;1.33;1.00;;;7.70;99.90;;;;;;4974420;28;20424;-70
2021/12/18 13:30:15;;;;;;;0.83;0.83;;;7.40;99.90;;;;;;4974693;28;20455;-69
2021/12/18 13:32:54;;;;;;;0.87;0.87;;;7.20;99.90;;;;;;4974366;28;20462;-70
2021/12/18 13:35:20;;;;;;;2.23;1.27;;;7.20;99.90;;;;;;4974527;28;20512;-72